АеродромСaдржaj METAR извeштaja
LYBEMETAR LYBE 240100Z 24004KT CAVOK 12/09 Q1019 NOSIG=
LYBTMETAR LYBT 240100Z 20003KT CAVOK 10/09 Q1019 NOSIG=
LYKVMETAR LYKV 240100Z VRB01KT 9999 SCT950 10/09 Q1020 NOSIG=
LYNIMETAR LYNI 240100Z VRB02KT CAVOK 08/07 Q1019 NOSIG=
LYVRMETAR LYVR 240100Z 22002KT CAVOK 09/09 Q1019 NOSIG=
LYUZMETAR LYUZ 240100Z AUTO VRB01KT 9999 SCT058/// 07/07 Q1020=
LYPGMETAR LYPG 240100Z 36010KT CAVOK 18/04 Q1016 NOSIG=
LYTVMETAR LYTV 240030Z 02006KT 9999 SCT080 20/04 Q1015=

Подаци учитани у: 2018-06-24 01:06:38 UTC

METAR, TAF, AIRMET, GAMET, SIGMET

Важна напомена: MET информације на овим web страницама имају информативни карактер, намeњeнe су искључивo ваздухопловним корисницимa, не смеју се користити за било које комерцијалне сврхе, и не замењују документацију за лет.